Racecast

Alli Smith

Temperance Bedford (MI) · 12 · SECMI D1MONROE · Compare head to head

Athlete rating 136.5 2018 XC season
Best race 147.8 XC
Races 104
Seasons 7 2013 — 2019

RankedNation #3514·MI #502·MI D1 #318·SEC #40·Team #16 ?

Rating scale ?

Cross Country

2018 XC 129.8

Unat MI (MI) · Grade 12

Date Meet Event Result Place Rating Difficulty PR/SR Flags
2018-11-11 Laverne Gibson Course 5000m 20:30.9 205th · 11th on team 128.0 +0.010 ★CR CSR
2018-11-03 Michigan International Speedway (MIS) 5000m 20:12.6 157th · 5th on team 132.3 +0.022 CSR
2018-10-27 Lake Erie Metro Park OFFICIAL 5000m 19:54.9 12th · 3rd on team 137.6 +0.055 SR CSR RSR
2018-10-18 Hudson Mills Metropark - OFFICIAL 5000m 20:22 21st · 5th on team 131.8 +0.036 CSR
2018-10-13 Munson Park 5000m 20:42.6 6th · 4th on team 131.5 +0.054 ★CR CSR
2018-10-09 Indian Creek OFFICIAL 5000m 21:11 7th · 7th on team 129.6 +0.039 CSR
2018-09-29 Lake Erie Metro Park OFFICIAL 5000m 21:06.7 22nd · 7th on team 129.8 +0.055 CSR
2018-09-22 Ella Sharp Park OFFICIAL 5000m 20:09.3 50th · 4th on team 132.6 +0.038 ★CR SR CSR RSR
2018-09-08 Hedges Boyer Park 5000m 20:29.8 43rd · 5th on team 123.1 -0.036 SR CSR RSR
2018-09-06 Willow Metropark OFFICIAL 5000m 22:17.9 70th · 7th on team 121.2 +0.048 ★CR SR CSR RSR

2017 XC 131.4

Temperance Bedford (MI) · Grade 11

Date Meet Event Result Place Rating Difficulty PR/SR Flags
2017-11-04 Michigan International Speedway (MIS) 5000m 19:49.9 149th · 2nd on team 133.6 +0.022 ★CR CSR
2017-10-28 Lake Erie Metro Park OFFICIAL 5000m 19:26.7 9th · 2nd on team 140.5 +0.055 ★PR ★CR SR CSR RSR
2017-10-19 Hudson Mills Metropark - OFFICIAL 5000m 19:41.9 9th · 2nd on team 137.4 +0.036 PR ★CR SR CSR RSR
2017-10-10 Indian Creek OFFICIAL 5000m 19:51.1 3rd · 3rd on team 136.3 +0.039 PR ★CR SR CSR RSR
2017-10-07 Portage West MS 5000m 20:44.8 89th · 2nd on team 131.4 +0.038 ★CR CSR
2017-09-30 Lake Erie Metro Park OFFICIAL 5000m 20:29.4 6th · 4th on team 132.7 +0.055 CR CSR
2017-09-23 Ella Sharp Park OFFICIAL 5000m 20:28 71st · 4th on team 135.2 +0.038 CR CSR RSR
2017-09-12 Hudson Mills Metropark - OFFICIAL 5000m 21:27 50th · 7th on team 125.5 +0.036 CSR RSR
2017-09-09 Hedges Boyer Park 5000m 20:08.1 27th · 3rd on team 124.4 -0.036 ★CR SR CSR RSR
2017-08-26 Boy Scout Camp Lakota 5000m 22:00.6 36th · 7th on team 117.3 -0.003 SR CSR RSR

2016 XC 125.0

Temperance Bedford (MI) · Grade 10

Date Meet Event Result Place Rating Difficulty PR/SR Flags
2016-11-05 Michigan International Speedway (MIS) 5000m 20:59.9 194th · 1st on team 127.0 +0.022 CSR
2016-10-20 Hudson Mills Metropark - OFFICIAL 5000m 20:32.5 17th · 2nd on team 130.6 +0.036 SR CSR
2016-10-15 Hudson Mills Metropark - OFFICIAL 5000m 20:33.8 17th · 2nd on team 131.8 +0.036 SR CSR RSR
2016-10-08 Portage West MS 5000m 20:58 162nd · 2nd on team 128.6 +0.038 CR CSR
2016-10-01 Pearson's Metro Park 5000m 20:53.3 19th · 2nd on team 121.3 -0.022 SR CSR
2016-09-24 Ella Sharp Park OFFICIAL 5000m 20:53.6 82nd · 3rd on team 129.0 +0.038 CR SR CSR
2016-09-17 Springfield Oaks County Park OFFICIAL 5000m 23:21 63rd · 2nd on team 122.0 +0.067 CSR
2016-09-13 Heritage Park (Adrian) OFFICIAL 5000m 21:38.3 33rd · 2nd on team 130.4 +0.084 CSR RSR
2016-09-10 Hedges Boyer Park 5000m 21:31 116th · 2nd on team 117.0 -0.036 CR SR CSR
2016-08-27 Boy Scout Camp Lakota 5000m 22:26.4 19th · 2nd on team 115.2 -0.003 SR CSR
2016-08-25 Heritage Park (Adrian) OFFICIAL 5000m 23:12.3 23rd · 2nd on team 121.5 +0.084 SR CSR RSR

2015 XC 129.1

Temperance Bedford (MI) · Grade 9

Date Meet Event Result Place Rating Difficulty PR/SR Flags
2015-11-07 Michigan International Speedway (MIS) 5000m 20:16.3 179th · 1st on team 130.6 +0.022 CR CSR
2015-10-22 Hudson Mills Metropark - OFFICIAL 5000m 20:01 6th · 1st on team 133.8 +0.036 PR CR SR CSR RSR
2015-10-17 Hudson Mills Metropark - OFFICIAL 5000m 20:17.7 26th · 1st on team 131.7 +0.036 PR CR SR CSR RSR
2015-10-03 Pearson's Metro Park 5000m 20:19.9 1st · 1st on team 124.4 -0.022 PR ★CR SR CSR
2015-09-29 Indian Creek OFFICIAL 5000m 20:36.7 16th · 1st on team 130.3 +0.039 PR CR SR CSR
2015-09-19 Springfield Oaks County Park OFFICIAL 5000m 21:18 17th · 1st on team 130.1 +0.067 ★CR CSR
2015-09-10 Munson Park 5000m 20:53.4 19th · 1st on team 130.8 +0.054 PR CR SR CSR RSR
2015-08-29 Boy Scout Camp Lakota 5000m 21:11.86 11th · 1st on team 120.9 -0.003 PR ★CR SR CSR
2015-08-27 Heritage Park (Adrian) OFFICIAL 5000m 21:19.1 5th · 1st on team 129.1 +0.084 PR ★CR SR CSR RSR

2014 XC 132.4

Temperance Bedford (MI) · Grade 8

Date Meet Event Result Place Rating Difficulty PR/SR Flags
2014-10-11 Munson Park 3200m 12:47.5 2nd · 1st on team 147.8 +0.034 ★PR ★CR ★R SR CSR RSR
2014-10-04 Fostoria HS 3200m 13:22.9 9th · 1st on team 126.8 -0.073 ★CR CSR
2014-09-27 Pearson's Metro Park 3200m 12:59.3 6th · 1st on team 133.2 -0.067 PR ★CR SR CSR
2014-09-24 Hudson Mills Metropark - OFFICIAL 2735m 13:10.1 4th · 1st on team 119.0 ★PR ★CR SR CSR
2014-09-20 Sterling State Park 3218m 13:30.3 2nd · 1st on team 145.0 +0.057 ★PR ★CR R SR CSR RSR
2014-09-06 Hedges Boyer Park 3200m 13:27.4 33rd · 1st on team 122.9 -0.089 PR ★CR SR CSR RSR

2013 XC 117.0

Temperance Bedford (MI) · Grade 7

Date Meet Event Result Place Rating Difficulty PR/SR Flags
2013-10-19 Hudson Mills Metropark - OFFICIAL 2253m 13:50.1 59th · 5th on team 89.4 ★PR ★CR SR CSR
2013-10-09 Heritage Park (Adrian) OFFICIAL 3200m 13:49 17th · 3rd on team 138.0 +0.046 PR ★CR R SR CSR RSR
2013-09-28 Pearson's Metro Park 3200m 14:57.8 46th · 5th on team 115.2 -0.067 PR CR SR CSR
2013-09-13 Forest Akers East Golf Course 3200m 15:10 114th · 5th on team 126.0 +0.062 PR ★CR R SR CSR RSR
2013-09-11 Munson Park 3200m 16:26 26th · 5th on team 116.2 +0.034 PR CR R SR CSR RSR

Track & Field

2019 TF 119.1

Temperance Bedford (MI) · Grade 12

Date Meet Event Result Place Rating Difficulty PR/SR Flags
2019-05-25 2019 MITCA Division 1 Team State Meet 800m 2:44.32 24th · 3rd on team 113.3 -0.026
2019-05-15 22nd River Rat Girls JV Invite 1600m 5:45.3 3rd · 2nd on team 119.6 -0.034 SR
2019-05-15 22nd River Rat Girls JV Invite 800m 2:31.44 1st · 1st on team 121.7 -0.034 ★PR SR RSR
2019-05-10 SEC Red Divisional Championship Meet 3200m 12:30.38 12th · 4th on team 119.1 -0.032
2019-04-30 SEC-R: Monroe & Bedford @ Skyline 1600m 5:52.09 5th · 3rd on team 117.3 -0.033 SR
2019-04-23 SEC Red Division - Bedford vs Saline 3200m 12:20.02 4th · 3rd on team 121.5 -0.033 SR RSR
2019-04-11 Holland Springfield Invitational 3200m 12:32 3rd · 2nd on team 119.7 -0.029
2019-04-09 SEC-R: Bedford @ Pioneer 3200m 12:28.62 2nd · 1st on team 120.3 -0.028 SR RSR

2018 TF 115.0

Temperance Bedford (MI) · Grade 11

Date Meet Event Result Place Rating Difficulty PR/SR Flags
2018-05-07 SEC Red: Huron @ Bedford 1600m 6:11 4th · 4th on team 111.5 -0.033 SR
2018-04-21 Whitmore Lake HS Invite 3200m 12:42.86 6th · 2nd on team 116.8 -0.029
2018-04-10 SEC Red Division - Pioneer @ Bedford 3200m 12:41 2nd · 2nd on team 116.8 -0.033 SR RSR

2017 TF 117.2

Temperance Bedford (MI) · Grade 10

Date Meet Event Result Place Rating Difficulty PR/SR Flags
2017-05-19 MHSAA LP Regional 03-1 @ Saline 3200m 12:09.54 14th · 2nd on team 121.0 -0.042 SR
2017-04-25 SEC Red: Bedford @ Skyline 1600m 5:52.48 5th · 3rd on team 116.7 -0.033
2017-04-25 SEC Red: Bedford @ Skyline 800m 2:46.96 6th · 4th on team 109.6 -0.033 PR SR
2017-04-13 Springfield Invitational 3200m 12:15.2 1st · 1st on team 121.3 -0.029 SR RSR
2017-04-13 Springfield Invitational 1600m 5:42 6th · 2nd on team 120.5 -0.029 ★PR SR
2017-03-28 SEC Red: Bedford @ Pioneer 3200m 13:06.93 2nd · 1st on team 114.0 -0.028 SR RSR

2016 TF 116.0

Temperance Bedford (MI) · Grade 9

Date Meet Event Result Place Rating Difficulty PR/SR Flags
2016-05-20 MHSAA LP Regional 03-1 @ Saline 3200m 11:55.8 12th · 1st on team 122.8 -0.042 ★PR SR RSR
2016-05-13 SEC Red Division Finals 1600m 5:50.33 13th · 4th on team 117.8 -0.033
2016-05-13 SEC Red Division Finals 3200m 12:28.42 11th · 1st on team 119.2 -0.033
2016-05-06 Clay Eagle Invitational 3200m 12:15.5 1st · 1st on team 120.7 -0.039
2016-05-03 SEC Tri: Huron/Skyline @ Bedford 3200m 12:10.45 2nd · 1st on team 121.4 -0.033 PR SR RSR
2016-04-26 Bedford @ Monroe 1600m 5:51.6 4th · 2nd on team 117.1 -0.032
2016-04-26 Bedford @ Monroe 800m 2:57.7 9th · 6th on team 103.0 -0.032
2016-04-23 Whitmore Lake HS Invite 3200m 13:48.85 7th · 3rd on team 108.0 -0.029
2016-04-19 Saline @ Bedford 800m 2:48.44 13th · 6th on team 108.9 -0.033 PR SR
2016-04-19 Saline @ Bedford 1600m 5:49.19 8th · 1st on team 118.1 -0.033 PR SR
2016-04-14 Springfield Invitational 3200m 12:31.2 3rd · 1st on team 118.9 -0.029 PR SR RSR
2016-04-12 SEC: Bedford @ Pioneer 3200m 12:53.41 2nd · 1st on team 115.6 -0.028 SR RSR

2015 TF 120.1

Temperance Bedford (MI) · Grade 8

Date Meet Event Result Place Rating Difficulty PR/SR Flags
2015-05-18 Bedford vs Chelsea MS 3200m 13:15 1st · 1st on team 122.4 -0.033
2015-05-14 Bedford vs Lincoln MS 3200m 13:00 1st · 1st on team 123.5 -0.033
2015-05-07 Bedford vs Saline vs Ypsilanti MS 3200m 12:51 1st · 1st on team 126.0 -0.033 PR SR RSR
2015-04-30 Bedford vs Monroe MS 3200m 13:31 1st · 1st on team 118.5 -0.032
2015-04-23 Bedford @Adrian MS 3200m 13:14 1st · 1st on team 123.5 -0.024 SR RSR
2015-04-16 Time Trials MS Girls 200m 36.24 25th · 25th on team -0.033 ★PR SR
2015-04-16 Time Trials MS Girls 800m 3:07 3rd · 3rd on team 106.8 -0.033 PR SR RSR
2015-04-16 Time Trials MS Girls 400m 1:27.14 15th · 15th on team -0.033 SR
2015-04-16 Time Trials MS Girls 100m 19.24 44th · 44th on team -0.033 SR

2014 TF 113.7

Temperance Bedford (MI) · Grade 7

Date Meet Event Result Place Rating Difficulty PR/SR Flags
2014-05-19 Bedford vs Dexter lj 8'2.5" -0.033
2014-05-19 Bedford vs Dexter 3200m 13:51 1st · 1st on team 116.0 -0.033
2014-05-08 Bedford vs Adrian lj 9'9" -0.033
2014-05-08 Bedford vs Adrian 3200m 13:39 1st · 1st on team 117.8 -0.033
2014-05-05 Bedford vs Ypsilanti lj 9'2" -0.029
2014-05-05 Bedford vs Ypsilanti 3200m 13:29 1st · 1st on team 118.7 -0.029
2014-04-28 Bedford vs Monroe lj 9'4" -0.033
2014-04-28 Bedford vs Monroe 1600m 6:35.1 2nd · 2nd on team 114.5 -0.033 PR SR
2014-04-16 Bedford TT 400m 1:26.14 30th · 30th on team -0.033 ★PR SR
2014-04-16 Bedford TT 100m 15.24 22nd · 22nd on team -0.033 ★PR SR
2014-04-16 Bedford TT 1600m 7:05 7th · 7th on team 105.2 -0.033 PR SR
2014-04-16 Bedford TT 200m 40.24 57th · 57th on team -0.033 PR SR
2014-04-16 Bedford TT 800m 3:16 3rd · 3rd on team 101.8 -0.033 PR SR
2014-04-14 Bedford vs Tecumseh lj 8' 1.5" -0.033
2014-04-14 Bedford vs Tecumseh 3200m 13:11.9 1st · 1st on team 122.1 -0.033 PR SR RSR